Time;durP1;ratioP1;P1;durP2;ratioP2;P2;SDS_P1;SDS_P2;PMS_P1;PMS_P2;Temp;Humidity;BMP_temperature;BMP_pressure;BME280_temperature;BME280_humidity;BME280_pressure;Samples;Min_cycle;Max_cycle;Signal;HPM_P1;HPM_P2
2023/08/26 00:02:00;;;;;;;1.17;0.43;;;20.40;99.90;;;;;;4419728;32;20480;-75
2023/08/26 00:04:25;;;;;;;0.20;0.20;;;20.50;99.90;;;;;;4418320;32;20084;-75
2023/08/26 00:06:51;;;;;;;0.20;0.20;;;20.50;99.90;;;;;;4422771;32;20144;-76
2023/08/26 00:09:16;;;;;;;0.45;0.45;;;20.40;99.90;;;;;;4420120;32;20099;-76
2023/08/26 00:11:42;;;;;;;0.30;0.30;;;20.40;99.90;;;;;;4420442;32;20149;-76
2023/08/26 00:14:08;;;;;;;0.30;0.30;;;20.40;99.90;;;;;;4417996;32;20076;-76
2023/08/26 00:16:33;;;;;;;0.37;0.37;;;20.40;99.90;;;;;;4421761;32;20139;-76
2023/08/26 00:18:59;;;;;;;0.35;0.35;;;20.50;99.90;;;;;;4419709;32;20135;-76
2023/08/26 00:21:26;;;;;;;0.30;0.30;;;20.50;99.90;;;;;;4418360;32;20078;-76
2023/08/26 00:23:51;;;;;;;0.30;0.30;;;20.40;99.90;;;;;;4419290;32;20166;-76
2023/08/26 00:26:17;;;;;;;0.20;0.20;;;20.50;99.90;;;;;;4421912;32;20113;-76
2023/08/26 00:28:43;;;;;;;0.35;0.35;;;20.50;99.90;;;;;;4419529;32;20086;-76
2023/08/26 00:31:08;;;;;;;0.20;0.20;;;20.50;99.90;;;;;;4420759;32;20092;-76
2023/08/26 00:33:34;;;;;;;0.20;0.20;;;20.50;99.90;;;;;;4421480;32;20077;-76
2023/08/26 00:35:59;;;;;;;0.25;0.25;;;20.50;99.90;;;;;;4418268;32;20144;-75
2023/08/26 00:38:25;;;;;;;0.55;0.55;;;20.40;99.90;;;;;;4419161;32;20106;-76
2023/08/26 00:40:50;;;;;;;0.50;0.35;;;20.30;99.90;;;;;;4419138;32;20061;-76
2023/08/26 00:43:16;;;;;;;0.40;0.40;;;20.40;99.90;;;;;;4422623;32;20080;-76
2023/08/26 00:45:43;;;;;;;0.30;0.30;;;20.30;99.90;;;;;;4419034;32;20082;-76
2023/08/26 00:48:12;;;;;;;0.35;0.35;;;20.40;99.90;;;;;;4419586;32;20089;-76
2023/08/26 00:50:39;;;;;;;0.40;0.40;;;20.30;99.90;;;;;;4419104;32;20098;-76
2023/08/26 00:53:06;;;;;;;0.60;0.60;;;20.20;99.90;;;;;;4418468;32;20101;-76
2023/08/26 00:55:32;;;;;;;0.68;0.35;;;20.30;99.90;;;;;;4420181;32;20085;-76
2023/08/26 00:57:57;;;;;;;0.40;0.40;;;20.30;99.90;;;;;;4423167;32;20565;-77
2023/08/26 01:00:24;;;;;;;0.30;0.30;;;20.40;99.90;;;;;;4421671;32;20446;-76
2023/08/26 01:02:49;;;;;;;3.85;1.85;;;20.40;99.90;;;;;;4419097;32;20065;-76
2023/08/26 01:05:16;;;;;;;0.50;0.50;;;20.20;99.90;;;;;;4418334;32;20093;-76
2023/08/26 01:07:41;;;;;;;0.20;0.20;;;20.20;99.90;;;;;;4420211;32;20140;-76
2023/08/26 01:10:08;;;;;;;0.28;0.28;;;20.20;99.90;;;;;;4422915;32;20180;-76
2023/08/26 01:13:00;;;;;;;0.40;0.40;;;20.10;99.90;;;;;;4420810;32;20509;-76
2023/08/26 01:15:28;;;;;;;0.30;0.30;;;20.00;99.90;;;;;;4421787;32;20102;-77
2023/08/26 01:17:55;;;;;;;0.65;0.40;;;20.10;99.90;;;;;;4421048;32;20593;-74
2023/08/26 01:20:23;;;;;;;0.28;0.28;;;20.10;99.90;;;;;;4421658;32;20097;-76
2023/08/26 01:22:51;;;;;;;0.30;0.30;;;20.00;99.90;;;;;;4422137;32;20505;-73
2023/08/26 01:25:17;;;;;;;0.25;0.25;;;20.10;99.90;;;;;;4422059;32;20102;-76
2023/08/26 01:27:43;;;;;;;0.20;0.20;;;20.10;99.90;;;;;;4422273;32;20089;-73
2023/08/26 01:30:10;;;;;;;0.20;0.20;;;20.10;99.90;;;;;;4421506;32;20175;-73
2023/08/26 01:32:54;;;;;;;0.68;0.68;;;20.10;99.90;;;;;;4420084;32;20542;-75
2023/08/26 01:35:27;;;;;;;0.35;0.35;;;20.10;99.90;;;;;;4422351;32;20069;-74
2023/08/26 01:37:54;;;;;;;0.30;0.30;;;20.00;99.90;;;;;;4422057;32;20085;-73
2023/08/26 01:40:20;;;;;;;0.20;0.20;;;19.90;99.90;;;;;;4423128;32;20420;-74
2023/08/26 01:42:47;;;;;;;0.57;0.28;;;19.90;99.90;;;;;;4421578;32;20093;-74
2023/08/26 01:45:13;;;;;;;0.30;0.30;;;19.90;99.90;;;;;;4421172;32;20081;-74
2023/08/26 01:47:39;;;;;;;0.30;0.30;;;20.00;99.90;;;;;;4421435;32;20069;-73
2023/08/26 01:50:05;;;;;;;0.28;0.28;;;19.90;99.90;;;;;;4422494;32;20102;-73
2023/08/26 01:52:30;;;;;;;0.20;0.20;;;20.00;99.90;;;;;;4422452;32;20422;-74
2023/08/26 01:54:56;;;;;;;0.30;0.30;;;20.00;99.90;;;;;;4421628;32;20138;-76
2023/08/26 01:57:21;;;;;;;0.55;0.45;;;19.90;99.90;;;;;;4420960;32;20097;-75
2023/08/26 01:59:47;;;;;;;0.60;0.40;;;19.80;99.90;;;;;;4421494;32;20124;-74
2023/08/26 02:02:13;;;;;;;2.12;1.17;;;19.80;99.90;;;;;;4419938;32;20508;-73
2023/08/26 02:04:38;;;;;;;1.45;0.40;;;19.80;99.90;;;;;;4422111;32;20077;-73
2023/08/26 02:07:04;;;;;;;2.08;0.80;;;19.70;99.90;;;;;;4423676;32;20069;-75
2023/08/26 02:09:31;;;;;;;0.30;0.30;;;19.70;99.90;;;;;;4422940;32;20587;-74
2023/08/26 02:11:56;;;;;;;0.45;0.40;;;19.60;99.90;;;;;;4421038;32;20516;-74
2023/08/26 02:14:22;;;;;;;0.50;0.50;;;19.60;99.90;;;;;;4421694;32;20109;-74
2023/08/26 02:16:47;;;;;;;0.75;0.70;;;19.60;99.90;;;;;;4422490;32;20101;-76
2023/08/26 02:19:13;;;;;;;0.40;0.40;;;19.60;99.90;;;;;;4424631;32;20189;-73
2023/08/26 02:21:39;;;;;;;0.40;0.40;;;19.60;99.90;;;;;;4420441;32;20086;-74
2023/08/26 02:24:04;;;;;;;0.30;0.30;;;19.60;99.90;;;;;;4421454;32;20131;-73
2023/08/26 02:26:30;;;;;;;0.30;0.30;;;19.60;99.90;;;;;;4423176;32;20073;-74
2023/08/26 02:28:55;;;;;;;0.22;0.22;;;19.50;99.90;;;;;;4422146;32;20077;-75
2023/08/26 02:31:22;;;;;;;0.20;0.20;;;19.50;99.90;;;;;;4422454;32;20084;-73
2023/08/26 02:33:47;;;;;;;0.25;0.25;;;19.50;99.90;;;;;;4422200;32;20168;-73
2023/08/26 02:36:13;;;;;;;0.40;0.40;;;19.50;99.90;;;;;;4421963;32;20110;-74
2023/08/26 02:38:39;;;;;;;0.28;0.28;;;19.50;99.90;;;;;;4422739;32;20065;-73
2023/08/26 02:41:06;;;;;;;0.30;0.30;;;19.40;99.90;;;;;;4420449;32;20145;-74
2023/08/26 02:43:31;;;;;;;0.40;0.37;;;19.40;99.90;;;;;;4422247;32;20114;-73
2023/08/26 02:45:58;;;;;;;1.62;0.77;;;19.40;99.90;;;;;;4421263;32;20525;-74
2023/08/26 02:48:26;;;;;;;0.37;0.30;;;19.40;99.90;;;;;;4418841;32;20111;-75
2023/08/26 02:50:56;;;;;;;1.48;0.77;;;19.40;99.90;;;;;;4417429;32;20081;-75
2023/08/26 02:53:21;;;;;;;2.62;1.55;;;19.40;99.90;;;;;;4422094;32;20109;-74
2023/08/26 02:55:47;;;;;;;0.22;0.22;;;19.40;99.90;;;;;;4421480;32;20128;-73
2023/08/26 02:58:13;;;;;;;0.25;0.25;;;19.30;99.90;;;;;;4420601;32;20105;-73
2023/08/26 03:00:38;;;;;;;0.30;0.30;;;19.30;99.90;;;;;;4421676;32;20073;-74
2023/08/26 03:03:04;;;;;;;4.80;1.48;;;19.30;99.90;;;;;;4423276;32;20181;-73
2023/08/26 03:05:30;;;;;;;0.47;0.47;;;19.30;99.90;;;;;;4422439;32;20074;-73
2023/08/26 03:07:55;;;;;;;3.30;0.65;;;19.30;99.90;;;;;;4420269;32;20085;-75
2023/08/26 03:10:21;;;;;;;0.50;0.50;;;19.30;99.90;;;;;;4422935;32;20081;-75
2023/08/26 03:12:46;;;;;;;0.30;0.30;;;19.30;99.90;;;;;;4421349;32;20085;-75
2023/08/26 03:15:11;;;;;;;2.28;0.85;;;19.20;99.90;;;;;;4423059;32;20065;-75
2023/08/26 03:17:37;;;;;;;0.32;0.32;;;19.30;99.90;;;;;;4422683;32;20098;-75
2023/08/26 03:20:03;;;;;;;0.35;0.35;;;19.40;99.90;;;;;;4423211;32;20089;-74
2023/08/26 03:22:28;;;;;;;0.55;0.55;;;19.40;99.90;;;;;;4424095;32;20084;-75
2023/08/26 03:24:54;;;;;;;0.30;0.30;;;19.40;99.90;;;;;;4421254;32;20457;-75
2023/08/26 03:27:19;;;;;;;0.30;0.30;;;19.40;99.90;;;;;;4420395;32;20086;-75
2023/08/26 03:29:46;;;;;;;0.37;0.37;;;19.40;99.90;;;;;;4422558;32;20133;-76
2023/08/26 03:32:11;;;;;;;0.30;0.30;;;19.50;99.90;;;;;;4418367;32;20123;-75
2023/08/26 03:34:37;;;;;;;0.28;0.28;;;19.40;99.90;;;;;;4419476;32;20116;-75
2023/08/26 03:37:03;;;;;;;0.93;0.75;;;19.30;99.90;;;;;;4419547;32;20069;-72
2023/08/26 03:39:29;;;;;;;0.30;0.30;;;19.30;99.90;;;;;;4422012;32;20131;-74
2023/08/26 03:41:54;;;;;;;0.35;0.28;;;19.30;99.90;;;;;;4420880;32;20072;-75
2023/08/26 03:44:20;;;;;;;0.30;0.30;;;19.20;99.90;;;;;;4421077;32;20164;-74
2023/08/26 03:46:45;;;;;;;0.32;0.32;;;19.20;99.90;;;;;;4421824;32;20069;-74
2023/08/26 03:49:12;;;;;;;0.70;0.70;;;19.20;99.90;;;;;;4421272;32;20192;-75
2023/08/26 03:51:38;;;;;;;0.30;0.30;;;19.20;99.90;;;;;;4422823;32;20540;-75
2023/08/26 03:54:04;;;;;;;0.30;0.30;;;19.20;99.90;;;;;;4421514;32;20402;-74
2023/08/26 03:56:29;;;;;;;0.50;0.50;;;19.30;99.90;;;;;;4421288;32;20132;-75
2023/08/26 03:58:57;;;;;;;1.35;0.73;;;19.40;99.90;;;;;;4420943;32;20077;-72
2023/08/26 04:01:22;;;;;;;0.30;0.30;;;19.40;99.90;;;;;;4421234;32;20093;-74
2023/08/26 04:03:52;;;;;;;0.40;0.40;;;19.40;99.90;;;;;;4421366;32;20556;-75
2023/08/26 04:06:18;;;;;;;0.65;0.65;;;19.30;99.90;;;;;;4422734;32;20077;-74
2023/08/26 04:08:45;;;;;;;2.15;1.20;;;19.30;99.90;;;;;;4421267;32;20058;-74
2023/08/26 04:11:10;;;;;;;0.55;0.50;;;19.30;99.90;;;;;;4419757;32;20409;-75
2023/08/26 04:13:36;;;;;;;0.43;0.43;;;19.30;99.90;;;;;;4418543;32;20078;-74
2023/08/26 04:16:03;;;;;;;2.62;1.55;;;19.30;99.90;;;;;;4422017;32;20141;-74
2023/08/26 04:18:29;;;;;;;0.30;0.30;;;19.40;99.90;;;;;;4419848;32;20521;-76
2023/08/26 04:20:56;;;;;;;3.95;1.00;;;19.40;99.90;;;;;;4420401;32;20113;-76
2023/08/26 04:23:21;;;;;;;0.57;0.57;;;19.40;99.90;;;;;;4420595;32;20089;-76
2023/08/26 04:25:47;;;;;;;0.30;0.30;;;19.50;99.90;;;;;;4419982;32;20098;-77
2023/08/26 04:28:14;;;;;;;0.98;0.50;;;19.50;99.90;;;;;;4419006;32;20077;-77
2023/08/26 04:30:40;;;;;;;2.60;1.08;;;19.40;99.90;;;;;;4419577;32;20148;-77
2023/08/26 04:33:05;;;;;;;0.40;0.40;;;19.30;99.90;;;;;;4421957;32;20112;-76
2023/08/26 04:35:32;;;;;;;0.35;0.35;;;19.20;99.90;;;;;;4424195;32;20086;-76
2023/08/26 04:37:57;;;;;;;0.20;0.20;;;19.20;99.90;;;;;;4422951;32;20090;-76
2023/08/26 04:40:25;;;;;;;2.22;0.93;;;19.20;99.90;;;;;;4423777;32;20105;-74
2023/08/26 04:42:51;;;;;;;0.32;0.32;;;19.20;99.90;;;;;;4424459;32;20061;-77
2023/08/26 04:45:17;;;;;;;0.30;0.30;;;19.20;99.90;;;;;;4425221;32;20120;-77
2023/08/26 04:47:42;;;;;;;0.90;0.82;;;19.30;99.90;;;;;;4423952;32;20136;-77
2023/08/26 04:50:09;;;;;;;0.80;0.75;;;19.30;99.90;;;;;;4423297;32;20105;-77
2023/08/26 04:52:35;;;;;;;16.65;1.37;;;19.30;99.90;;;;;;4420118;32;20076;-77
2023/08/26 04:55:01;;;;;;;0.68;0.68;;;19.20;99.90;;;;;;4421427;32;20078;-77
2023/08/26 04:57:26;;;;;;;0.40;0.40;;;19.30;99.90;;;;;;4422590;32;20085;-77
2023/08/26 04:59:51;;;;;;;1.27;1.17;;;19.30;99.90;;;;;;4422599;32;20081;-77
2023/08/26 05:02:17;;;;;;;2.08;0.40;;;19.20;99.90;;;;;;4422523;32;20088;-76
2023/08/26 05:04:44;;;;;;;0.45;0.45;;;19.30;99.90;;;;;;4421905;32;20592;-76
2023/08/26 05:07:10;;;;;;;0.20;0.20;;;19.30;99.90;;;;;;4424059;32;20081;-75
2023/08/26 05:09:36;;;;;;;0.35;0.35;;;19.30;99.90;;;;;;4421740;32;20096;-78
2023/08/26 05:12:01;;;;;;;0.30;0.30;;;19.30;99.90;;;;;;4422689;32;20124;-75
2023/08/26 05:14:27;;;;;;;0.30;0.30;;;19.30;99.90;;;;;;4421050;32;20125;-75
2023/08/26 05:16:52;;;;;;;0.37;0.37;;;19.40;99.90;;;;;;4423312;32;20136;-78
2023/08/26 05:19:17;;;;;;;0.50;0.50;;;19.40;99.90;;;;;;4421779;32;20579;-77
2023/08/26 05:21:43;;;;;;;1.02;0.80;;;19.30;99.90;;;;;;4421909;32;20139;-77
2023/08/26 05:24:08;;;;;;;0.37;0.30;;;19.30;99.90;;;;;;4422251;32;20105;-77
2023/08/26 05:26:34;;;;;;;1.87;0.88;;;19.40;99.90;;;;;;4422120;32;20070;-76
2023/08/26 05:28:59;;;;;;;0.50;0.50;;;19.40;99.90;;;;;;4422807;32;20073;-77
2023/08/26 05:31:26;;;;;;;0.73;0.70;;;19.40;99.90;;;;;;4426441;32;20084;-76
2023/08/26 05:33:52;;;;;;;0.85;0.50;;;19.40;99.90;;;;;;4425101;32;20094;-77
2023/08/26 05:36:18;;;;;;;0.37;0.37;;;19.40;99.90;;;;;;4424250;32;20105;-77
2023/08/26 05:38:43;;;;;;;0.40;0.40;;;19.30;99.90;;;;;;4424924;32;20077;-77
2023/08/26 05:41:09;;;;;;;5.28;2.05;;;19.40;99.90;;;;;;4425313;32;20097;-76
2023/08/26 05:43:34;;;;;;;27.37;0.62;;;19.40;99.90;;;;;;4425105;32;20066;-76
2023/08/26 05:46:00;;;;;;;0.30;0.30;;;19.40;99.90;;;;;;4422395;32;20128;-77
2023/08/26 05:48:25;;;;;;;0.60;0.60;;;19.50;99.90;;;;;;4425319;32;20536;-77
2023/08/26 05:50:50;;;;;;;0.52;0.52;;;19.40;99.90;;;;;;4422332;32;20144;-76
2023/08/26 05:53:16;;;;;;;0.47;0.32;;;19.40;99.90;;;;;;4424430;32;20212;-77
2023/08/26 05:55:41;;;;;;;0.40;0.40;;;19.30;99.90;;;;;;4423274;32;20120;-77
2023/08/26 05:58:07;;;;;;;0.98;0.50;;;19.40;99.90;;;;;;4423648;32;20077;-76
2023/08/26 06:00:34;;;;;;;0.55;0.55;;;19.40;99.90;;;;;;4419147;32;20089;-77
2023/08/26 06:02:59;;;;;;;4.30;1.55;;;19.50;99.90;;;;;;4420514;32;20093;-77
2023/08/26 06:05:25;;;;;;;1.55;1.02;;;19.60;99.90;;;;;;4421589;32;20078;-77
2023/08/26 06:07:51;;;;;;;2.20;0.95;;;19.70;99.90;;;;;;4422235;32;20072;-77
2023/08/26 06:10:17;;;;;;;0.98;0.68;;;19.70;99.90;;;;;;4419072;32;20587;-77
2023/08/26 06:12:43;;;;;;;0.40;0.30;;;19.70;99.90;;;;;;4418187;32;20105;-77
2023/08/26 06:15:08;;;;;;;0.47;0.47;;;19.70;99.90;;;;;;4419396;32;20109;-76
2023/08/26 06:17:35;;;;;;;7.15;0.95;;;19.80;99.90;;;;;;4422474;32;20093;-77
2023/08/26 06:20:03;;;;;;;0.62;0.45;;;19.70;99.90;;;;;;4421233;32;20104;-77
2023/08/26 06:22:28;;;;;;;0.40;0.40;;;19.80;99.90;;;;;;4420992;32;20150;-77
2023/08/26 06:24:54;;;;;;;0.60;0.60;;;19.80;99.90;;;;;;4418934;32;20136;-77
2023/08/26 06:27:20;;;;;;;2.53;0.47;;;19.80;99.90;;;;;;4421308;32;20070;-77
2023/08/26 06:29:52;;;;;;;0.40;0.40;;;19.80;99.90;;;;;;4419356;32;20084;-77
2023/08/26 06:32:17;;;;;;;0.30;0.30;;;19.80;99.90;;;;;;4420331;32;20521;-77
2023/08/26 06:34:44;;;;;;;1.02;0.75;;;19.90;99.90;;;;;;4416837;32;20345;-77
2023/08/26 06:37:09;;;;;;;0.73;0.73;;;20.00;99.90;;;;;;4420294;32;20450;-77
2023/08/26 06:39:36;;;;;;;1.27;0.50;;;20.10;99.90;;;;;;4423838;32;20089;-77
2023/08/26 06:42:01;;;;;;;0.57;0.45;;;20.10;99.90;;;;;;4422531;32;20164;-75
2023/08/26 06:44:29;;;;;;;1.27;0.93;;;20.10;99.90;;;;;;4423936;32;20128;-74
2023/08/26 06:46:56;;;;;;;1.67;1.02;;;20.10;99.90;;;;;;4423803;32;20072;-74
2023/08/26 06:49:22;;;;;;;11.90;2.05;;;20.10;99.90;;;;;;4424064;32;20060;-74
2023/08/26 06:51:48;;;;;;;0.50;0.50;;;20.20;99.90;;;;;;4424460;32;20097;-75
2023/08/26 06:54:13;;;;;;;0.40;0.40;;;20.20;99.90;;;;;;4422536;32;20140;-75
2023/08/26 06:56:38;;;;;;;0.50;0.50;;;20.20;99.90;;;;;;4422657;32;20453;-76
2023/08/26 06:59:05;;;;;;;0.37;0.37;;;20.30;99.90;;;;;;4422245;32;20092;-74
2023/08/26 07:01:32;;;;;;;0.25;0.25;;;20.30;99.90;;;;;;4421472;32;20525;-75
2023/08/26 07:04:06;;;;;;;0.62;0.60;;;20.30;99.90;;;;;;4423687;32;20125;-74
2023/08/26 07:06:32;;;;;;;1.70;1.02;;;20.40;99.90;;;;;;4422846;32;20081;-77
2023/08/26 07:08:59;;;;;;;0.73;0.55;;;20.40;99.90;;;;;;4422658;32;20069;-77
2023/08/26 07:11:24;;;;;;;0.30;0.30;;;20.40;99.90;;;;;;4422184;32;20089;-76
2023/08/26 07:13:50;;;;;;;2.30;0.75;;;20.40;99.90;;;;;;4422689;32;20102;-76
2023/08/26 07:16:15;;;;;;;0.25;0.25;;;20.50;99.90;;;;;;4422281;32;20073;-77
2023/08/26 07:18:40;;;;;;;0.37;0.37;;;20.60;99.90;;;;;;4421394;32;20078;-77
2023/08/26 07:21:06;;;;;;;1.20;0.68;;;20.70;99.90;;;;;;4421653;32;20260;-76
2023/08/26 07:23:32;;;;;;;3.70;1.20;;;20.70;99.90;;;;;;4423913;32;20085;-76
2023/08/26 07:25:58;;;;;;;2.55;0.95;;;20.70;99.90;;;;;;4421169;32;20069;-77
2023/08/26 07:28:24;;;;;;;0.43;0.43;;;20.60;99.90;;;;;;4420883;32;20532;-77
2023/08/26 07:30:51;;;;;;;0.62;0.60;;;20.50;99.90;;;;;;4417996;32;20127;-76
2023/08/26 07:33:16;;;;;;;0.32;0.32;;;20.50;99.90;;;;;;4419503;32;20201;-76
2023/08/26 07:35:42;;;;;;;2.30;0.85;;;20.60;99.90;;;;;;4420504;32;21997;-76
2023/08/26 07:38:08;;;;;;;0.50;0.50;;;20.60;99.90;;;;;;4419622;32;20178;-76
2023/08/26 07:40:33;;;;;;;0.90;0.77;;;20.70;99.90;;;;;;4419991;32;20093;-76
2023/08/26 07:42:59;;;;;;;0.30;0.30;;;20.70;99.90;;;;;;4423073;32;20114;-76
2023/08/26 07:45:24;;;;;;;2.28;1.02;;;20.80;99.90;;;;;;4421323;32;20588;-76
2023/08/26 07:47:51;;;;;;;0.90;0.57;;;20.80;99.90;;;;;;4422671;32;20094;-76
2023/08/26 07:50:18;;;;;;;1.80;0.60;;;20.90;99.90;;;;;;4427030;32;20847;-76
2023/08/26 07:52:44;;;;;;;0.30;0.30;;;20.80;99.90;;;;;;4429346;32;20109;-75
2023/08/26 07:55:09;;;;;;;0.30;0.30;;;20.80;99.90;;;;;;4427174;32;20144;-76
2023/08/26 07:57:35;;;;;;;1.00;0.95;;;20.80;99.90;;;;;;4429975;32;20102;-75
2023/08/26 08:00:02;;;;;;;1.55;0.93;;;20.80;99.90;;;;;;4422796;32;20095;-75
2023/08/26 08:02:28;;;;;;;1.33;0.80;;;20.80;99.90;;;;;;4424465;32;20273;-75
2023/08/26 08:04:54;;;;;;;1.62;0.95;;;20.80;99.90;;;;;;4428395;32;20132;-76
2023/08/26 08:07:19;;;;;;;1.17;0.80;;;20.90;99.90;;;;;;4429236;32;20120;-76
2023/08/26 08:09:45;;;;;;;5.65;0.50;;;20.80;99.90;;;;;;4427550;32;20378;-76
2023/08/26 08:12:11;;;;;;;9.07;0.98;;;20.90;99.90;;;;;;4430967;32;20480;-75
2023/08/26 08:14:36;;;;;;;0.68;0.55;;;20.80;99.90;;;;;;4429761;32;20145;-75
2023/08/26 08:17:03;;;;;;;0.30;0.30;;;20.90;99.90;;;;;;4430300;32;20112;-75
2023/08/26 08:19:28;;;;;;;2.65;1.20;;;20.90;99.90;;;;;;4420833;32;20081;-76
2023/08/26 08:21:54;;;;;;;0.85;0.43;;;21.00;99.90;;;;;;4421055;32;20075;-76
2023/08/26 08:24:19;;;;;;;1.65;0.60;;;21.00;99.90;;;;;;4419995;32;20209;-75
2023/08/26 08:26:44;;;;;;;0.50;0.50;;;21.00;99.90;;;;;;4422718;32;20093;-75
2023/08/26 08:29:11;;;;;;;0.90;0.80;;;21.00;99.90;;;;;;4419549;32;20513;-75
2023/08/26 08:31:37;;;;;;;0.30;0.30;;;21.00;99.90;;;;;;4420098;32;20127;-76
2023/08/26 08:34:03;;;;;;;1.37;0.88;;;21.00;99.90;;;;;;4421542;32;20116;-75
2023/08/26 08:36:29;;;;;;;0.30;0.30;;;21.00;99.90;;;;;;4417981;32;20092;-78
2023/08/26 08:38:56;;;;;;;0.50;0.35;;;21.10;99.90;;;;;;4417782;32;20602;-77
2023/08/26 08:41:22;;;;;;;0.62;0.45;;;21.20;99.90;;;;;;4418034;32;20093;-77
2023/08/26 08:43:52;;;;;;;4.40;1.58;;;21.30;99.90;;;;;;4417611;32;20108;-78
2023/08/26 08:46:18;;;;;;;0.28;0.28;;;21.30;99.90;;;;;;4416634;32;20069;-77
2023/08/26 08:48:44;;;;;;;0.98;0.57;;;21.30;99.90;;;;;;4422773;32;20081;-77
2023/08/26 08:51:11;;;;;;;0.52;0.52;;;21.20;99.90;;;;;;4419054;32;20102;-77
2023/08/26 08:53:44;;;;;;;1.90;0.55;;;21.20;99.90;;;;;;4418176;32;20148;-78
2023/08/26 08:56:10;;;;;;;0.20;0.20;;;21.20;99.90;;;;;;4417096;32;20089;-77
2023/08/26 08:58:36;;;;;;;0.40;0.40;;;21.20;99.90;;;;;;4422061;32;20065;-77
2023/08/26 09:01:04;;;;;;;1.25;1.15;;;21.20;99.90;;;;;;4424221;32;20074;-76
2023/08/26 09:03:29;;;;;;;0.62;0.62;;;21.10;99.90;;;;;;4424418;32;20093;-76
2023/08/26 09:05:55;;;;;;;0.57;0.57;;;21.10;99.90;;;;;;4423276;32;20119;-77
2023/08/26 09:08:23;;;;;;;0.45;0.45;;;21.10;99.90;;;;;;4423371;32;20516;-77
2023/08/26 09:10:49;;;;;;;0.32;0.32;;;21.30;99.90;;;;;;4423833;32;20088;-77
2023/08/26 09:13:15;;;;;;;1.77;0.70;;;21.50;99.90;;;;;;4422643;32;20496;-77
2023/08/26 09:15:40;;;;;;;0.52;0.50;;;21.70;99.90;;;;;;4422991;32;20089;-76
2023/08/26 09:18:12;;;;;;;0.62;0.62;;;21.80;99.90;;;;;;4424428;32;20754;-76
2023/08/26 09:20:39;;;;;;;0.20;0.20;;;21.90;99.90;;;;;;4423264;32;20517;-76
2023/08/26 09:23:05;;;;;;;0.35;0.35;;;21.90;99.90;;;;;;4424118;32;20085;-76
2023/08/26 09:25:32;;;;;;;0.90;0.65;;;21.90;99.90;;;;;;4421790;32;20128;-76
2023/08/26 09:27:58;;;;;;;12.60;0.45;;;21.90;99.90;;;;;;4420809;32;20101;-74
2023/08/26 09:30:23;;;;;;;0.30;0.30;;;21.90;99.90;;;;;;4421821;32;20098;-76
2023/08/26 09:32:49;;;;;;;0.30;0.30;;;21.90;99.90;;;;;;4421574;32;20483;-75
2023/08/26 09:35:17;;;;;;;0.37;0.30;;;22.10;99.90;;;;;;4421405;32;20122;-75
2023/08/26 09:37:46;;;;;;;0.32;0.32;;;22.10;99.90;;;;;;4421039;32;20421;-75
2023/08/26 09:40:15;;;;;;;0.20;0.20;;;22.20;99.90;;;;;;4422113;32;20086;-74
2023/08/26 09:42:42;;;;;;;1.97;0.83;;;22.40;99.90;;;;;;4421280;32;20728;-74
2023/08/26 09:45:10;;;;;;;0.45;0.45;;;22.50;99.90;;;;;;4422498;32;20270;-75
2023/08/26 09:47:37;;;;;;;1.95;0.75;;;22.70;99.90;;;;;;4422257;32;20157;-74
2023/08/26 09:50:04;;;;;;;0.50;0.50;;;23.00;99.90;;;;;;4421583;32;21331;-75
2023/08/26 09:52:39;;;;;;;0.20;0.20;;;23.20;99.90;;;;;;4421685;32;20168;-75
2023/08/26 09:55:06;;;;;;;7.20;1.60;;;23.40;99.90;;;;;;4421670;32;20053;-75
2023/08/26 09:57:31;;;;;;;0.28;0.25;;;23.20;99.90;;;;;;4420530;32;20061;-74
2023/08/26 09:59:58;;;;;;;0.25;0.25;;;23.20;99.90;;;;;;4423331;32;20117;-74
2023/08/26 10:02:25;;;;;;;0.37;0.37;;;23.30;99.90;;;;;;4423683;32;20077;-75
2023/08/26 10:04:54;;;;;;;0.65;0.40;;;23.50;99.90;;;;;;4423734;32;20115;-75
2023/08/26 10:07:22;;;;;;;0.47;0.40;;;23.50;99.90;;;;;;4422122;32;20077;-75
2023/08/26 10:10:10;;;;;;;0.20;0.20;;;23.70;99.90;;;;;;4421552;32;20089;-77
2023/08/26 10:12:40;;;;;;;1.00;0.82;;;23.70;99.90;;;;;;4416563;32;20201;-76
2023/08/26 10:15:11;;;;;;;0.37;0.37;;;23.80;99.90;;;;;;4420340;32;20643;-77
2023/08/26 10:17:39;;;;;;;;;;;23.70;99.90;;;;;;4421167;32;20144;-77
2023/08/26 10:20:05;;;;;;;0.50;0.50;;;23.60;99.90;;;;;;4419423;32;20365;-78
2023/08/26 10:22:31;;;;;;;2.15;0.50;;;23.50;99.90;;;;;;4417432;32;20185;-76
2023/08/26 10:24:57;;;;;;;0.30;0.30;;;23.40;99.90;;;;;;4419786;32;20140;-77
2023/08/26 10:27:23;;;;;;;0.32;0.32;;;23.60;99.90;;;;;;4419693;32;20157;-76
2023/08/26 10:29:49;;;;;;;0.55;0.55;;;23.90;99.90;;;;;;4420417;32;20097;-75
2023/08/26 10:32:18;;;;;;;1.40;0.70;;;24.10;99.90;;;;;;4422903;32;20089;-75
2023/08/26 10:34:59;;;;;;;1.40;0.88;;;24.10;99.90;;;;;;4421995;32;20603;-77
2023/08/26 10:37:31;;;;;;;0.52;0.52;;;24.10;99.90;;;;;;4420504;32;20504;-77
2023/08/26 10:39:56;;;;;;;1.08;0.70;;;24.40;99.90;;;;;;4420642;32;20200;-76
2023/08/26 10:42:23;;;;;;;0.70;0.57;;;24.90;99.90;;;;;;4419498;32;20526;-77
2023/08/26 10:44:54;;;;;;;0.47;0.47;;;25.30;99.90;;;;;;4419003;32;20105;-77
2023/08/26 10:47:38;;;;;;;9.38;1.45;;;25.50;99.90;;;;;;4420685;32;20093;-77
2023/08/26 10:50:26;;;;;;;0.40;0.40;;;25.60;99.90;;;;;;4417961;32;20073;-76
2023/08/26 10:52:56;;;;;;;0.30;0.30;;;25.80;99.90;;;;;;4419647;32;20138;-77
2023/08/26 10:55:23;;;;;;;1.02;0.60;;;25.90;99.90;;;;;;4421722;32;20065;-77
2023/08/26 10:58:13;;;;;;;0.30;0.30;;;25.70;99.90;;;;;;4420458;32;20101;-76
2023/08/26 11:00:41;;;;;;;0.35;0.35;;;25.50;99.90;;;;;;4419169;32;20081;-77
2023/08/26 11:03:10;;;;;;;2.20;1.10;;;25.40;99.90;;;;;;4419543;32;20096;-76
2023/08/26 11:05:37;;;;;;;0.22;0.22;;;25.60;99.90;;;;;;4419611;32;20096;-76
2023/08/26 11:08:03;;;;;;;0.93;0.22;;;25.70;99.90;;;;;;4417642;32;20525;-76
2023/08/26 11:10:30;;;;;;;0.25;0.25;;;25.80;99.90;;;;;;4416910;32;20085;-76
2023/08/26 11:12:56;;;;;;;0.30;0.30;;;26.20;99.90;;;;;;4418168;32;20073;-76
2023/08/26 11:15:22;;;;;;;0.35;0.35;;;26.30;99.90;;;;;;4419667;32;20085;-77
2023/08/26 11:17:48;;;;;;;1.52;0.85;;;26.60;99.90;;;;;;4419842;32;20081;-75
2023/08/26 11:20:16;;;;;;;0.40;0.40;;;27.00;99.90;;;;;;4421524;32;20089;-75
2023/08/26 11:22:42;;;;;;;0.20;0.20;;;27.20;99.90;;;;;;4420456;32;20559;-75
2023/08/26 11:25:11;;;;;;;0.28;0.25;;;27.50;99.90;;;;;;4418520;32;20199;-75
2023/08/26 11:27:37;;;;;;;0.10;0.10;;;27.80;99.90;;;;;;4420664;32;20136;-75
2023/08/26 11:30:08;;;;;;;0.10;0.10;;;28.00;99.90;;;;;;4417785;32;20113;-76
2023/08/26 11:32:36;;;;;;;0.85;0.43;;;28.30;99.90;;;;;;4422992;32;20097;-76
2023/08/26 11:35:02;;;;;;;0.43;0.40;;;28.60;99.90;;;;;;4421139;32;20090;-76
2023/08/26 11:37:33;;;;;;;1.17;0.95;;;28.80;99.90;;;;;;4420658;32;20077;-75
2023/08/26 11:40:00;;;;;;;0.85;0.82;;;28.30;99.90;;;;;;4421619;32;20061;-75
2023/08/26 11:42:26;;;;;;;2.03;0.62;;;27.60;99.90;;;;;;4422677;32;20103;-76
2023/08/26 11:44:51;;;;;;;2.25;0.75;;;27.00;99.90;;;;;;4419244;32;20076;-76
2023/08/26 11:47:17;;;;;;;2.12;0.60;;;26.50;99.90;;;;;;4418275;32;98752;-75
2023/08/26 11:49:43;;;;;;;0.40;0.32;;;26.40;99.90;;;;;;4422260;32;20454;-74
2023/08/26 11:52:09;;;;;;;0.20;0.20;;;26.30;99.90;;;;;;4419209;32;20110;-73
2023/08/26 11:54:34;;;;;;;0.70;0.57;;;26.20;99.90;;;;;;4419706;32;20093;-76
2023/08/26 11:57:00;;;;;;;5.87;1.15;;;26.30;99.90;;;;;;4421029;32;20124;-75
2023/08/26 11:59:36;;;;;;;0.20;0.20;;;26.90;99.90;;;;;;4420281;32;20069;-75
2023/08/26 12:02:17;;;;;;;1.00;0.65;;;27.50;99.90;;;;;;4420128;32;20116;-74
2023/08/26 12:04:43;;;;;;;0.52;0.45;;;28.10;99.90;;;;;;4418454;32;20160;-73
2023/08/26 12:07:09;;;;;;;1.10;0.57;;;28.10;99.90;;;;;;4419211;32;20476;-74
2023/08/26 12:09:36;;;;;;;0.10;0.10;;;27.80;99.90;;;;;;4421223;32;20066;-74
2023/08/26 12:12:05;;;;;;;0.10;0.10;;;27.30;99.90;;;;;;4419851;32;20077;-75
2023/08/26 12:14:31;;;;;;;0.15;0.15;;;26.90;99.90;;;;;;4420134;32;20069;-75
2023/08/26 12:17:04;;;;;;;0.68;0.35;;;26.60;99.90;;;;;;4419795;32;20085;-74
2023/08/26 12:19:31;;;;;;;0.40;0.40;;;26.60;99.90;;;;;;4422203;32;20564;-74
2023/08/26 12:22:03;;;;;;;1.85;0.90;;;27.00;99.90;;;;;;4422070;32;20099;-74
2023/08/26 12:24:30;;;;;;;1.55;0.62;;;27.40;99.90;;;;;;4418667;32;20437;-76
2023/08/26 12:27:08;;;;;;;0.00;0.00;;;27.80;99.90;;;;;;4419181;32;21258;-74
2023/08/26 12:29:33;;;;;;;0.45;0.32;;;28.50;99.90;;;;;;4417787;32;20062;-76
2023/08/26 12:31:59;;;;;;;0.10;0.10;;;28.70;99.90;;;;;;4421658;32;20437;-76
2023/08/26 12:34:24;;;;;;;1.00;0.52;;;29.00;99.90;;;;;;4420876;32;20433;-76
2023/08/26 12:36:50;;;;;;;0.62;0.57;;;29.60;99.90;;;;;;4419159;32;20110;-77
2023/08/26 12:39:15;;;;;;;0.85;0.35;;;29.70;99.90;;;;;;4418086;32;20553;-76
2023/08/26 12:41:41;;;;;;;0.10;0.10;;;29.60;99.90;;;;;;4419184;32;20069;-76
2023/08/26 12:44:08;;;;;;;2.17;0.40;;;29.70;99.90;;;;;;4420704;32;20073;-75
2023/08/26 12:46:34;;;;;;;0.10;0.10;;;29.30;99.90;;;;;;4419159;32;20097;-76